Richmond Heights, Florida
Current Conditions -  °F | °C
As of 6:53 AM on Thursday 29 Jan 2015 (Local Time) from KTMB Reporting Station
Scattered Clouds Scattered Clouds  
Wind Chill: 52°   Ceiling: Unl
Heat Index: 52°   Visibility: 10mi
Dew Point: 47°   Wind: 7mph
Humidity: 83%   Direction: 350°N
Pressure: 30.22"   Gusts: NA
Location:  25.6371°N, 80.3102°W
Report Text: KTMB 291153Z 35006KT 10SM SCT050 11/08 A3022 RMK AO2 SLP232 T01110083 10122 20111 53011
Loading
Personal Weather Stations






























Interactive Weather Map New forecast layout! Learn more

10-Day Weather Forecast

Advertisements
Track Severe Weather on mobile